sensor_id;sensor_type;location;lat;lon;timestamp;P1;durP1;ratioP1;P2;durP2;ratioP2
8757;SDS011;4415;42.152;24.744;2023-10-08T00:00:24;13.00;;;7.93;;
8757;SDS011;4415;42.152;24.744;2023-10-08T00:03:10;11.00;;;8.13;;
8757;SDS011;4415;42.152;24.744;2023-10-08T00:05:36;11.90;;;7.97;;
8757;SDS011;4415;42.152;24.744;2023-10-08T00:08:01;12.20;;;8.27;;
8757;SDS011;4415;42.152;24.744;2023-10-08T00:10:27;14.47;;;8.67;;
8757;SDS011;4415;42.152;24.744;2023-10-08T00:12:52;13.70;;;8.73;;
8757;SDS011;4415;42.152;24.744;2023-10-08T00:15:17;11.60;;;8.00;;
8757;SDS011;4415;42.152;24.744;2023-10-08T00:17:42;13.47;;;8.63;;
8757;SDS011;4415;42.152;24.744;2023-10-08T00:20:10;14.40;;;8.20;;
8757;SDS011;4415;42.152;24.744;2023-10-08T00:22:40;13.53;;;8.50;;
8757;SDS011;4415;42.152;24.744;2023-10-08T00:25:06;15.13;;;7.83;;
8757;SDS011;4415;42.152;24.744;2023-10-08T00:27:36;10.70;;;7.80;;
8757;SDS011;4415;42.152;24.744;2023-10-08T00:30:04;18.07;;;8.30;;
8757;SDS011;4415;42.152;24.744;2023-10-08T00:32:38;14.60;;;8.47;;
8757;SDS011;4415;42.152;24.744;2023-10-08T00:35:04;11.23;;;8.50;;
8757;SDS011;4415;42.152;24.744;2023-10-08T00:37:30;11.83;;;8.60;;
8757;SDS011;4415;42.152;24.744;2023-10-08T00:39:55;14.53;;;7.97;;
8757;SDS011;4415;42.152;24.744;2023-10-08T00:42:22;12.93;;;7.93;;
8757;SDS011;4415;42.152;24.744;2023-10-08T00:44:47;11.30;;;7.73;;
8757;SDS011;4415;42.152;24.744;2023-10-08T00:47:13;10.53;;;7.27;;
8757;SDS011;4415;42.152;24.744;2023-10-08T00:49:38;11.03;;;7.73;;
8757;SDS011;4415;42.152;24.744;2023-10-08T00:52:08;12.03;;;7.63;;
8757;SDS011;4415;42.152;24.744;2023-10-08T00:54:34;12.83;;;7.77;;
8757;SDS011;4415;42.152;24.744;2023-10-08T00:57:11;24.13;;;8.50;;
8757;SDS011;4415;42.152;24.744;2023-10-08T00:59:41;15.97;;;8.00;;
8757;SDS011;4415;42.152;24.744;2023-10-08T01:02:10;11.77;;;6.57;;
8757;SDS011;4415;42.152;24.744;2023-10-08T01:04:40;10.67;;;6.37;;
8757;SDS011;4415;42.152;24.744;2023-10-08T01:07:09;9.63;;;6.60;;
8757;SDS011;4415;42.152;24.744;2023-10-08T01:09:38;12.77;;;6.43;;
8757;SDS011;4415;42.152;24.744;2023-10-08T01:12:08;8.80;;;6.23;;
8757;SDS011;4415;42.152;24.744;2023-10-08T01:14:37;10.23;;;6.67;;
8757;SDS011;4415;42.152;24.744;2023-10-08T01:17:02;10.47;;;6.90;;
8757;SDS011;4415;42.152;24.744;2023-10-08T01:19:30;9.43;;;7.10;;
8757;SDS011;4415;42.152;24.744;2023-10-08T01:22:04;9.50;;;6.23;;
8757;SDS011;4415;42.152;24.744;2023-10-08T01:24:32;8.77;;;6.87;;
8757;SDS011;4415;42.152;24.744;2023-10-08T01:27:01;10.17;;;6.23;;
8757;SDS011;4415;42.152;24.744;2023-10-08T01:29:30;9.47;;;6.30;;
8757;SDS011;4415;42.152;24.744;2023-10-08T01:31:56;9.80;;;5.80;;
8757;SDS011;4415;42.152;24.744;2023-10-08T01:34:22;8.17;;;6.40;;
8757;SDS011;4415;42.152;24.744;2023-10-08T01:36:52;7.83;;;6.50;;
8757;SDS011;4415;42.152;24.744;2023-10-08T01:39:18;7.60;;;6.20;;
8757;SDS011;4415;42.152;24.744;2023-10-08T01:41:43;10.87;;;6.30;;
8757;SDS011;4415;42.152;24.744;2023-10-08T01:44:09;11.83;;;5.80;;
8757;SDS011;4415;42.152;24.744;2023-10-08T01:46:34;7.47;;;5.30;;
8757;SDS011;4415;42.152;24.744;2023-10-08T01:49:00;6.30;;;5.70;;
8757;SDS011;4415;42.152;24.744;2023-10-08T01:51:33;6.43;;;5.43;;
8757;SDS011;4415;42.152;24.744;2023-10-08T01:54:03;8.27;;;5.40;;
8757;SDS011;4415;42.152;24.744;2023-10-08T01:56:34;9.30;;;5.80;;
8757;SDS011;4415;42.152;24.744;2023-10-08T01:59:00;5.70;;;5.10;;
8757;SDS011;4415;42.152;24.744;2023-10-08T02:01:25;6.83;;;4.83;;
8757;SDS011;4415;42.152;24.744;2023-10-08T02:03:51;8.80;;;5.40;;
8757;SDS011;4415;42.152;24.744;2023-10-08T02:06:16;5.07;;;4.53;;
8757;SDS011;4415;42.152;24.744;2023-10-08T02:08:41;7.17;;;4.90;;
8757;SDS011;4415;42.152;24.744;2023-10-08T02:11:07;6.07;;;5.33;;
8757;SDS011;4415;42.152;24.744;2023-10-08T02:13:33;8.23;;;5.00;;
8757;SDS011;4415;42.152;24.744;2023-10-08T02:15:59;8.53;;;5.47;;
8757;SDS011;4415;42.152;24.744;2023-10-08T02:18:25;6.37;;;4.87;;
8757;SDS011;4415;42.152;24.744;2023-10-08T02:20:50;6.57;;;5.40;;
8757;SDS011;4415;42.152;24.744;2023-10-08T02:23:16;6.20;;;5.57;;
8757;SDS011;4415;42.152;24.744;2023-10-08T02:25:43;8.07;;;6.33;;
8757;SDS011;4415;42.152;24.744;2023-10-08T02:28:09;9.00;;;6.43;;
8757;SDS011;4415;42.152;24.744;2023-10-08T02:30:37;7.13;;;5.50;;
8757;SDS011;4415;42.152;24.744;2023-10-08T02:33:04;9.30;;;6.33;;
8757;SDS011;4415;42.152;24.744;2023-10-08T02:35:38;8.87;;;6.77;;
8757;SDS011;4415;42.152;24.744;2023-10-08T02:38:04;13.70;;;8.53;;
8757;SDS011;4415;42.152;24.744;2023-10-08T02:40:31;15.43;;;9.23;;
8757;SDS011;4415;42.152;24.744;2023-10-08T02:42:56;14.80;;;8.77;;
8757;SDS011;4415;42.152;24.744;2023-10-08T02:45:25;17.93;;;9.40;;
8757;SDS011;4415;42.152;24.744;2023-10-08T02:47:51;15.37;;;9.10;;
8757;SDS011;4415;42.152;24.744;2023-10-08T02:50:18;13.77;;;8.67;;
8757;SDS011;4415;42.152;24.744;2023-10-08T02:52:43;10.37;;;7.50;;
8757;SDS011;4415;42.152;24.744;2023-10-08T02:55:10;8.47;;;7.10;;
8757;SDS011;4415;42.152;24.744;2023-10-08T02:57:48;9.00;;;6.17;;
8757;SDS011;4415;42.152;24.744;2023-10-08T03:00:15;12.10;;;6.23;;
8757;SDS011;4415;42.152;24.744;2023-10-08T03:02:44;10.93;;;6.60;;
8757;SDS011;4415;42.152;24.744;2023-10-08T03:05:11;9.43;;;6.17;;
8757;SDS011;4415;42.152;24.744;2023-10-08T03:07:38;8.30;;;6.20;;
8757;SDS011;4415;42.152;24.744;2023-10-08T03:10:05;7.87;;;5.87;;
8757;SDS011;4415;42.152;24.744;2023-10-08T03:12:34;7.37;;;5.50;;
8757;SDS011;4415;42.152;24.744;2023-10-08T03:15:00;8.37;;;6.10;;
8757;SDS011;4415;42.152;24.744;2023-10-08T03:17:43;8.33;;;5.77;;
8757;SDS011;4415;42.152;24.744;2023-10-08T03:20:16;8.97;;;5.67;;
8757;SDS011;4415;42.152;24.744;2023-10-08T03:23:00;7.87;;;5.60;;
8757;SDS011;4415;42.152;24.744;2023-10-08T03:25:30;11.87;;;5.73;;
8757;SDS011;4415;42.152;24.744;2023-10-08T03:27:55;8.30;;;5.87;;
8757;SDS011;4415;42.152;24.744;2023-10-08T03:30:24;8.47;;;6.30;;
8757;SDS011;4415;42.152;24.744;2023-10-08T03:32:51;9.37;;;6.13;;
8757;SDS011;4415;42.152;24.744;2023-10-08T03:35:20;6.57;;;5.70;;
8757;SDS011;4415;42.152;24.744;2023-10-08T03:37:52;10.30;;;5.80;;
8757;SDS011;4415;42.152;24.744;2023-10-08T03:40:19;8.33;;;5.90;;
8757;SDS011;4415;42.152;24.744;2023-10-08T03:42:47;9.90;;;6.33;;
8757;SDS011;4415;42.152;24.744;2023-10-08T03:45:14;9.23;;;6.00;;
8757;SDS011;4415;42.152;24.744;2023-10-08T03:47:47;7.67;;;5.93;;
8757;SDS011;4415;42.152;24.744;2023-10-08T03:50:21;9.27;;;6.57;;
8757;SDS011;4415;42.152;24.744;2023-10-08T03:52:57;13.53;;;6.87;;
8757;SDS011;4415;42.152;24.744;2023-10-08T03:55:23;9.93;;;6.67;;
8757;SDS011;4415;42.152;24.744;2023-10-08T03:57:52;12.37;;;7.40;;
8757;SDS011;4415;42.152;24.744;2023-10-08T04:00:22;11.37;;;6.80;;
8757;SDS011;4415;42.152;24.744;2023-10-08T04:02:54;11.53;;;5.73;;
8757;SDS011;4415;42.152;24.744;2023-10-08T04:05:23;8.97;;;5.10;;
8757;SDS011;4415;42.152;24.744;2023-10-08T04:07:53;7.33;;;4.87;;
8757;SDS011;4415;42.152;24.744;2023-10-08T04:10:24;8.07;;;5.67;;
8757;SDS011;4415;42.152;24.744;2023-10-08T04:13:08;7.10;;;5.03;;
8757;SDS011;4415;42.152;24.744;2023-10-08T04:15:34;7.47;;;5.13;;
8757;SDS011;4415;42.152;24.744;2023-10-08T04:17:59;5.20;;;4.70;;
8757;SDS011;4415;42.152;24.744;2023-10-08T04:20:27;7.47;;;5.00;;
8757;SDS011;4415;42.152;24.744;2023-10-08T04:22:58;6.57;;;4.53;;
8757;SDS011;4415;42.152;24.744;2023-10-08T04:25:25;7.50;;;4.40;;
8757;SDS011;4415;42.152;24.744;2023-10-08T04:27:50;6.20;;;4.53;;
8757;SDS011;4415;42.152;24.744;2023-10-08T04:30:16;9.63;;;4.60;;
8757;SDS011;4415;42.152;24.744;2023-10-08T04:32:41;7.93;;;4.33;;
8757;SDS011;4415;42.152;24.744;2023-10-08T04:35:07;8.43;;;4.53;;
8757;SDS011;4415;42.152;24.744;2023-10-08T04:37:34;9.07;;;4.63;;
8757;SDS011;4415;42.152;24.744;2023-10-08T04:39:59;7.43;;;4.50;;
8757;SDS011;4415;42.152;24.744;2023-10-08T04:42:25;4.93;;;4.53;;
8757;SDS011;4415;42.152;24.744;2023-10-08T04:44:51;6.17;;;4.33;;
8757;SDS011;4415;42.152;24.744;2023-10-08T04:47:17;5.63;;;4.63;;
8757;SDS011;4415;42.152;24.744;2023-10-08T04:49:58;6.60;;;4.67;;
8757;SDS011;4415;42.152;24.744;2023-10-08T04:52:23;6.40;;;4.47;;
8757;SDS011;4415;42.152;24.744;2023-10-08T04:54:50;7.13;;;4.80;;
8757;SDS011;4415;42.152;24.744;2023-10-08T04:57:19;8.53;;;5.00;;
8757;SDS011;4415;42.152;24.744;2023-10-08T04:59:47;6.50;;;4.73;;
8757;SDS011;4415;42.152;24.744;2023-10-08T05:02:15;8.23;;;4.77;;
8757;SDS011;4415;42.152;24.744;2023-10-08T05:04:59;7.00;;;4.90;;
8757;SDS011;4415;42.152;24.744;2023-10-08T05:07:36;6.40;;;4.80;;
8757;SDS011;4415;42.152;24.744;2023-10-08T05:10:10;7.80;;;5.30;;
8757;SDS011;4415;42.152;24.744;2023-10-08T05:12:36;8.47;;;4.93;;
8757;SDS011;4415;42.152;24.744;2023-10-08T05:15:15;8.80;;;5.00;;
8757;SDS011;4415;42.152;24.744;2023-10-08T05:17:41;6.15;;;4.70;;
8757;SDS011;4415;42.152;24.744;2023-10-08T05:20:32;6.40;;;4.63;;
8757;SDS011;4415;42.152;24.744;2023-10-08T05:23:24;8.50;;;4.37;;
8757;SDS011;4415;42.152;24.744;2023-10-08T05:25:50;8.77;;;4.60;;
8757;SDS011;4415;42.152;24.744;2023-10-08T05:28:37;9.73;;;4.57;;
8757;SDS011;4415;42.152;24.744;2023-10-08T05:31:22;6.20;;;4.37;;
8757;SDS011;4415;42.152;24.744;2023-10-08T05:34:01;7.22;;;4.53;;
8757;SDS011;4415;42.152;24.744;2023-10-08T05:36:26;9.30;;;4.47;;
8757;SDS011;4415;42.152;24.744;2023-10-08T05:39:18;10.70;;;4.97;;
8757;SDS011;4415;42.152;24.744;2023-10-08T05:41:52;18.02;;;4.88;;
8757;SDS011;4415;42.152;24.744;2023-10-08T05:44:30;5.55;;;4.03;;
8757;SDS011;4415;42.152;24.744;2023-10-08T05:47:04;7.85;;;4.05;;
8757;SDS011;4415;42.152;24.744;2023-10-08T05:49:53;4.60;;;4.00;;
8757;SDS011;4415;42.152;24.744;2023-10-08T05:52:36;4.43;;;4.03;;
8757;SDS011;4415;42.152;24.744;2023-10-08T05:55:28;5.20;;;4.10;;
8757;SDS011;4415;42.152;24.744;2023-10-08T05:57:59;9.55;;;4.05;;
8757;SDS011;4415;42.152;24.744;2023-10-08T06:00:41;5.95;;;3.60;;
8757;SDS011;4415;42.152;24.744;2023-10-08T06:03:16;16.55;;;4.68;;
8757;SDS011;4415;42.152;24.744;2023-10-08T06:06:07;6.13;;;3.90;;
8757;SDS011;4415;42.152;24.744;2023-10-08T06:08:52;10.68;;;4.00;;
8757;SDS011;4415;42.152;24.744;2023-10-08T06:11:37;5.03;;;4.50;;
8757;SDS011;4415;42.152;24.744;2023-10-08T06:14:09;4.82;;;3.88;;
8757;SDS011;4415;42.152;24.744;2023-10-08T06:16:57;8.32;;;4.40;;
8757;SDS011;4415;42.152;24.744;2023-10-08T06:19:39;8.73;;;4.15;;
8757;SDS011;4415;42.152;24.744;2023-10-08T06:22:04;5.97;;;4.53;;
8757;SDS011;4415;42.152;24.744;2023-10-08T06:24:29;6.70;;;4.00;;
8757;SDS011;4415;42.152;24.744;2023-10-08T06:26:58;5.68;;;4.60;;
8757;SDS011;4415;42.152;24.744;2023-10-08T06:29:29;6.30;;;4.43;;
8757;SDS011;4415;42.152;24.744;2023-10-08T06:31:55;7.65;;;4.65;;
8757;SDS011;4415;42.152;24.744;2023-10-08T06:34:21;5.00;;;4.47;;
8757;SDS011;4415;42.152;24.744;2023-10-08T06:36:48;18.83;;;5.60;;
8757;SDS011;4415;42.152;24.744;2023-10-08T06:39:15;14.00;;;7.50;;
8757;SDS011;4415;42.152;24.744;2023-10-08T06:41:44;20.10;;;8.90;;
8757;SDS011;4415;42.152;24.744;2023-10-08T06:44:11;16.08;;;9.70;;
8757;SDS011;4415;42.152;24.744;2023-10-08T06:46:39;17.33;;;9.32;;
8757;SDS011;4415;42.152;24.744;2023-10-08T06:49:06;18.88;;;10.25;;
8757;SDS011;4415;42.152;24.744;2023-10-08T06:51:36;14.13;;;10.40;;
8757;SDS011;4415;42.152;24.744;2023-10-08T06:54:01;22.35;;;12.18;;
8757;SDS011;4415;42.152;24.744;2023-10-08T06:56:28;24.67;;;13.93;;
8757;SDS011;4415;42.152;24.744;2023-10-08T06:58:53;24.13;;;14.32;;
8757;SDS011;4415;42.152;24.744;2023-10-08T07:01:19;29.33;;;17.55;;
8757;SDS011;4415;42.152;24.744;2023-10-08T07:03:50;36.53;;;18.30;;
8757;SDS011;4415;42.152;24.744;2023-10-08T07:06:16;27.75;;;17.30;;
8757;SDS011;4415;42.152;24.744;2023-10-08T07:08:50;23.92;;;15.88;;
8757;SDS011;4415;42.152;24.744;2023-10-08T07:11:20;27.70;;;15.07;;
8757;SDS011;4415;42.152;24.744;2023-10-08T07:13:45;21.20;;;13.98;;
8757;SDS011;4415;42.152;24.744;2023-10-08T07:16:10;16.85;;;12.25;;
8757;SDS011;4415;42.152;24.744;2023-10-08T07:18:42;15.02;;;10.88;;
8757;SDS011;4415;42.152;24.744;2023-10-08T07:21:14;14.95;;;8.98;;
8757;SDS011;4415;42.152;24.744;2023-10-08T07:23:40;6.78;;;5.85;;
8757;SDS011;4415;42.152;24.744;2023-10-08T07:26:28;14.88;;;6.47;;
8757;SDS011;4415;42.152;24.744;2023-10-08T07:29:01;14.30;;;5.85;;
8757;SDS011;4415;42.152;24.744;2023-10-08T07:31:33;5.68;;;4.50;;
8757;SDS011;4415;42.152;24.744;2023-10-08T07:33:59;5.88;;;4.28;;
8757;SDS011;4415;42.152;24.744;2023-10-08T07:36:40;30.77;;;5.90;;
8757;SDS011;4415;42.152;24.744;2023-10-08T07:39:06;8.88;;;4.75;;
8757;SDS011;4415;42.152;24.744;2023-10-08T07:41:33;7.75;;;4.68;;
8757;SDS011;4415;42.152;24.744;2023-10-08T07:43:59;10.57;;;5.18;;
8757;SDS011;4415;42.152;24.744;2023-10-08T07:46:25;10.82;;;5.18;;
8757;SDS011;4415;42.152;24.744;2023-10-08T07:48:51;10.20;;;5.32;;
8757;SDS011;4415;42.152;24.744;2023-10-08T07:51:16;10.18;;;5.40;;
8757;SDS011;4415;42.152;24.744;2023-10-08T07:53:48;21.58;;;5.45;;
8757;SDS011;4415;42.152;24.744;2023-10-08T07:56:14;12.13;;;4.85;;
8757;SDS011;4415;42.152;24.744;2023-10-08T07:58:39;22.90;;;5.75;;
8757;SDS011;4415;42.152;24.744;2023-10-08T08:01:07;24.60;;;6.18;;
8757;SDS011;4415;42.152;24.744;2023-10-08T08:03:38;28.13;;;5.97;;
8757;SDS011;4415;42.152;24.744;2023-10-08T08:06:08;19.60;;;5.13;;
8757;SDS011;4415;42.152;24.744;2023-10-08T08:08:38;20.95;;;5.20;;
8757;SDS011;4415;42.152;24.744;2023-10-08T08:11:03;11.57;;;5.38;;
8757;SDS011;4415;42.152;24.744;2023-10-08T08:13:31;15.30;;;5.28;;
8757;SDS011;4415;42.152;24.744;2023-10-08T08:15:56;9.68;;;4.93;;
8757;SDS011;4415;42.152;24.744;2023-10-08T08:18:26;14.35;;;4.93;;
8757;SDS011;4415;42.152;24.744;2023-10-08T08:20:57;12.60;;;5.05;;
8757;SDS011;4415;42.152;24.744;2023-10-08T08:23:27;11.05;;;4.72;;
8757;SDS011;4415;42.152;24.744;2023-10-08T08:25:52;9.57;;;4.75;;
8757;SDS011;4415;42.152;24.744;2023-10-08T08:28:31;9.27;;;4.57;;
8757;SDS011;4415;42.152;24.744;2023-10-08T08:31:01;19.58;;;5.70;;
8757;SDS011;4415;42.152;24.744;2023-10-08T08:33:29;30.33;;;6.10;;
8757;SDS011;4415;42.152;24.744;2023-10-08T08:36:11;6.95;;;4.47;;
8757;SDS011;4415;42.152;24.744;2023-10-08T08:38:36;7.10;;;4.45;;
8757;SDS011;4415;42.152;24.744;2023-10-08T08:41:04;6.65;;;4.55;;
8757;SDS011;4415;42.152;24.744;2023-10-08T08:43:35;5.57;;;4.57;;
8757;SDS011;4415;42.152;24.744;2023-10-08T08:46:02;13.00;;;5.40;;
8757;SDS011;4415;42.152;24.744;2023-10-08T08:48:27;10.48;;;4.93;;
8757;SDS011;4415;42.152;24.744;2023-10-08T08:50:54;6.95;;;4.97;;
8757;SDS011;4415;42.152;24.744;2023-10-08T08:53:19;5.75;;;4.50;;
8757;SDS011;4415;42.152;24.744;2023-10-08T08:55:47;11.73;;;5.28;;
8757;SDS011;4415;42.152;24.744;2023-10-08T08:58:14;6.60;;;4.70;;
8757;SDS011;4415;42.152;24.744;2023-10-08T09:00:39;36.58;;;6.53;;
8757;SDS011;4415;42.152;24.744;2023-10-08T09:03:06;12.38;;;4.70;;
8757;SDS011;4415;42.152;24.744;2023-10-08T09:05:32;17.23;;;5.43;;
8757;SDS011;4415;42.152;24.744;2023-10-08T09:08:03;22.25;;;5.00;;
8757;SDS011;4415;42.152;24.744;2023-10-08T09:10:29;13.93;;;4.70;;
8757;SDS011;4415;42.152;24.744;2023-10-08T09:12:55;19.10;;;5.18;;
8757;SDS011;4415;42.152;24.744;2023-10-08T09:15:27;10.70;;;4.93;;
8757;SDS011;4415;42.152;24.744;2023-10-08T09:17:53;10.48;;;4.43;;
8757;SDS011;4415;42.152;24.744;2023-10-08T09:20:19;8.45;;;5.47;;
8757;SDS011;4415;42.152;24.744;2023-10-08T09:22:46;4.93;;;4.18;;
8757;SDS011;4415;42.152;24.744;2023-10-08T09:25:15;7.68;;;4.55;;
8757;SDS011;4415;42.152;24.744;2023-10-08T09:27:50;9.20;;;4.88;;
8757;SDS011;4415;42.152;24.744;2023-10-08T09:30:20;12.48;;;5.15;;
8757;SDS011;4415;42.152;24.744;2023-10-08T09:32:46;9.98;;;4.55;;
8757;SDS011;4415;42.152;24.744;2023-10-08T09:35:13;8.85;;;4.63;;
8757;SDS011;4415;42.152;24.744;2023-10-08T09:37:40;10.35;;;4.70;;
8757;SDS011;4415;42.152;24.744;2023-10-08T09:40:05;7.90;;;4.63;;
8757;SDS011;4415;42.152;24.744;2023-10-08T09:42:37;12.98;;;5.05;;
8757;SDS011;4415;42.152;24.744;2023-10-08T09:45:03;13.38;;;5.32;;
8757;SDS011;4415;42.152;24.744;2023-10-08T09:47:31;13.65;;;5.03;;
8757;SDS011;4415;42.152;24.744;2023-10-08T09:50:03;45.50;;;7.78;;
8757;SDS011;4415;42.152;24.744;2023-10-08T09:53:17;66.20;;;7.68;;
8757;SDS011;4415;42.152;24.744;2023-10-08T09:55:36;20.10;;;5.47;;
8757;SDS011;4415;42.152;24.744;2023-10-08T09:58:06;15.02;;;5.60;;
8757;SDS011;4415;42.152;24.744;2023-10-08T10:00:36;9.98;;;4.75;;
8757;SDS011;4415;42.152;24.744;2023-10-08T10:03:03;20.20;;;5.35;;
8757;SDS011;4415;42.152;24.744;2023-10-08T10:05:29;10.07;;;4.55;;
8757;SDS011;4415;42.152;24.744;2023-10-08T10:07:55;16.30;;;5.10;;
8757;SDS011;4415;42.152;24.744;2023-10-08T10:10:27;16.15;;;4.50;;
8757;SDS011;4415;42.152;24.744;2023-10-08T10:13:02;14.35;;;4.40;;
8757;SDS011;4415;42.152;24.744;2023-10-08T10:15:28;13.93;;;4.75;;
8757;SDS011;4415;42.152;24.744;2023-10-08T10:18:15;14.35;;;4.90;;
8757;SDS011;4415;42.152;24.744;2023-10-08T10:21:36;20.33;;;5.22;;
8757;SDS011;4415;42.152;24.744;2023-10-08T10:23:43;13.63;;;4.88;;
8757;SDS011;4415;42.152;24.744;2023-10-08T10:31:35;9.07;;;4.40;;
8757;SDS011;4415;42.152;24.744;2023-10-08T10:34:07;12.02;;;4.53;;
8757;SDS011;4415;42.152;24.744;2023-10-08T10:36:34;10.82;;;4.60;;
8757;SDS011;4415;42.152;24.744;2023-10-08T10:39:00;10.55;;;4.05;;
8757;SDS011;4415;42.152;24.744;2023-10-08T10:41:27;12.13;;;4.13;;
8757;SDS011;4415;42.152;24.744;2023-10-08T10:43:52;8.13;;;3.80;;
8757;SDS011;4415;42.152;24.744;2023-10-08T10:46:18;14.27;;;4.50;;
8757;SDS011;4415;42.152;24.744;2023-10-08T10:48:55;10.25;;;4.75;;
8757;SDS011;4415;42.152;24.744;2023-10-08T10:51:40;10.57;;;4.75;;
8757;SDS011;4415;42.152;24.744;2023-10-08T10:54:06;14.57;;;4.45;;
8757;SDS011;4415;42.152;24.744;2023-10-08T10:56:35;15.07;;;4.47;;
8757;SDS011;4415;42.152;24.744;2023-10-08T10:59:08;12.93;;;4.78;;
8757;SDS011;4415;42.152;24.744;2023-10-08T11:01:48;4.85;;;3.53;;
8757;SDS011;4415;42.152;24.744;2023-10-08T11:04:40;13.52;;;4.50;;
8757;SDS011;4415;42.152;24.744;2023-10-08T11:07:18;16.48;;;4.93;;
8757;SDS011;4415;42.152;24.744;2023-10-08T11:09:55;10.85;;;4.35;;
8757;SDS011;4415;42.152;24.744;2023-10-08T11:12:20;8.93;;;4.13;;
8757;SDS011;4415;42.152;24.744;2023-10-08T11:14:57;5.78;;;3.72;;
8757;SDS011;4415;42.152;24.744;2023-10-08T11:17:23;10.55;;;4.40;;
8757;SDS011;4415;42.152;24.744;2023-10-08T11:19:50;5.07;;;3.55;;
8757;SDS011;4415;42.152;24.744;2023-10-08T11:22:16;3.95;;;3.63;;
8757;SDS011;4415;42.152;24.744;2023-10-08T11:24:42;10.05;;;4.13;;
8757;SDS011;4415;42.152;24.744;2023-10-08T11:27:12;10.32;;;4.65;;
8757;SDS011;4415;42.152;24.744;2023-10-08T11:29:46;10.93;;;4.47;;
8757;SDS011;4415;42.152;24.744;2023-10-08T11:32:13;10.20;;;5.00;;
8757;SDS011;4415;42.152;24.744;2023-10-08T11:34:42;13.10;;;4.68;;
8757;SDS011;4415;42.152;24.744;2023-10-08T11:37:15;31.52;;;5.80;;
8757;SDS011;4415;42.152;24.744;2023-10-08T11:39:51;21.98;;;4.60;;
8757;SDS011;4415;42.152;24.744;2023-10-08T11:42:18;19.80;;;4.85;;
8757;SDS011;4415;42.152;24.744;2023-10-08T11:45:04;8.35;;;4.13;;
8757;SDS011;4415;42.152;24.744;2023-10-08T11:47:52;4.15;;;3.55;;
8757;SDS011;4415;42.152;24.744;2023-10-08T11:50:25;11.43;;;3.63;;
8757;SDS011;4415;42.152;24.744;2023-10-08T11:52:59;7.70;;;4.10;;
8757;SDS011;4415;42.152;24.744;2023-10-08T11:55:34;13.20;;;3.95;;
8757;SDS011;4415;42.152;24.744;2023-10-08T11:58:02;6.60;;;4.35;;
8757;SDS011;4415;42.152;24.744;2023-10-08T12:00:38;8.43;;;4.43;;
8757;SDS011;4415;42.152;24.744;2023-10-08T12:03:14;7.75;;;4.32;;
8757;SDS011;4415;42.152;24.744;2023-10-08T12:05:50;10.23;;;4.22;;
8757;SDS011;4415;42.152;24.744;2023-10-08T12:08:23;12.30;;;4.22;;
8757;SDS011;4415;42.152;24.744;2023-10-08T12:10:50;17.52;;;4.63;;
8757;SDS011;4415;42.152;24.744;2023-10-08T12:13:19;17.92;;;4.82;;
8757;SDS011;4415;42.152;24.744;2023-10-08T12:15:49;10.80;;;4.53;;
8757;SDS011;4415;42.152;24.744;2023-10-08T12:18:15;9.40;;;4.57;;
8757;SDS011;4415;42.152;24.744;2023-10-08T12:20:44;14.27;;;4.30;;
8757;SDS011;4415;42.152;24.744;2023-10-08T12:23:11;5.45;;;4.10;;
8757;SDS011;4415;42.152;24.744;2023-10-08T12:25:44;11.63;;;4.13;;
8757;SDS011;4415;42.152;24.744;2023-10-08T12:28:16;5.32;;;3.70;;
8757;SDS011;4415;42.152;24.744;2023-10-08T12:30:44;11.63;;;3.90;;
8757;SDS011;4415;42.152;24.744;2023-10-08T12:33:10;8.02;;;4.10;;
8757;SDS011;4415;42.152;24.744;2023-10-08T12:35:40;12.05;;;4.20;;
8757;SDS011;4415;42.152;24.744;2023-10-08T12:38:08;8.05;;;3.97;;
8757;SDS011;4415;42.152;24.744;2023-10-08T12:40:34;5.57;;;3.72;;
8757;SDS011;4415;42.152;24.744;2023-10-08T12:43:23;7.60;;;4.00;;
8757;SDS011;4415;42.152;24.744;2023-10-08T12:45:52;6.20;;;3.67;;
8757;SDS011;4415;42.152;24.744;2023-10-08T12:48:21;11.43;;;4.30;;
8757;SDS011;4415;42.152;24.744;2023-10-08T12:50:49;8.48;;;4.38;;
8757;SDS011;4415;42.152;24.744;2023-10-08T12:53:32;13.13;;;4.50;;
8757;SDS011;4415;42.152;24.744;2023-10-08T12:56:07;9.68;;;4.28;;
8757;SDS011;4415;42.152;24.744;2023-10-08T12:58:40;9.07;;;3.78;;
8757;SDS011;4415;42.152;24.744;2023-10-08T13:01:14;11.32;;;4.20;;
8757;SDS011;4415;42.152;24.744;2023-10-08T13:03:42;8.52;;;4.30;;
8757;SDS011;4415;42.152;24.744;2023-10-08T13:06:14;8.77;;;4.28;;
8757;SDS011;4415;42.152;24.744;2023-10-08T13:08:49;9.57;;;4.18;;
8757;SDS011;4415;42.152;24.744;2023-10-08T13:11:18;8.55;;;4.53;;
8757;SDS011;4415;42.152;24.744;2023-10-08T13:13:47;9.38;;;4.25;;
8757;SDS011;4415;42.152;24.744;2023-10-08T13:16:23;7.25;;;4.07;;
8757;SDS011;4415;42.152;24.744;2023-10-08T13:18:48;6.40;;;4.38;;
8757;SDS011;4415;42.152;24.744;2023-10-08T13:21:14;5.43;;;3.80;;
8757;SDS011;4415;42.152;24.744;2023-10-08T13:23:39;7.15;;;4.40;;
8757;SDS011;4415;42.152;24.744;2023-10-08T13:26:05;11.45;;;3.97;;
8757;SDS011;4415;42.152;24.744;2023-10-08T13:28:32;5.50;;;3.95;;
8757;SDS011;4415;42.152;24.744;2023-10-08T13:31:04;9.18;;;4.20;;
8757;SDS011;4415;42.152;24.744;2023-10-08T13:33:35;11.35;;;4.22;;
8757;SDS011;4415;42.152;24.744;2023-10-08T13:36:04;8.90;;;3.97;;
8757;SDS011;4415;42.152;24.744;2023-10-08T13:38:36;5.55;;;4.18;;
8757;SDS011;4415;42.152;24.744;2023-10-08T13:41:05;5.82;;;3.67;;
8757;SDS011;4415;42.152;24.744;2023-10-08T13:43:46;7.32;;;3.80;;
8757;SDS011;4415;42.152;24.744;2023-10-08T13:46:15;5.88;;;4.03;;
8757;SDS011;4415;42.152;24.744;2023-10-08T13:48:43;13.77;;;4.18;;
8757;SDS011;4415;42.152;24.744;2023-10-08T13:51:14;10.50;;;3.78;;
8757;SDS011;4415;42.152;24.744;2023-10-08T13:53:48;11.48;;;4.15;;
8757;SDS011;4415;42.152;24.744;2023-10-08T13:56:17;6.63;;;3.83;;
8757;SDS011;4415;42.152;24.744;2023-10-08T13:58:44;10.95;;;4.55;;
8757;SDS011;4415;42.152;24.744;2023-10-08T14:01:11;9.50;;;4.00;;
8757;SDS011;4415;42.152;24.744;2023-10-08T14:03:49;12.82;;;4.15;;
8757;SDS011;4415;42.152;24.744;2023-10-08T14:06:18;4.82;;;3.13;;
8757;SDS011;4415;42.152;24.744;2023-10-08T14:08:45;10.60;;;3.70;;
8757;SDS011;4415;42.152;24.744;2023-10-08T14:11:16;7.63;;;3.80;;
8757;SDS011;4415;42.152;24.744;2023-10-08T14:13:43;9.00;;;3.90;;
8757;SDS011;4415;42.152;24.744;2023-10-08T14:16:09;7.15;;;3.88;;
8757;SDS011;4415;42.152;24.744;2023-10-08T14:18:36;11.63;;;4.38;;
8757;SDS011;4415;42.152;24.744;2023-10-08T14:21:07;7.80;;;3.90;;
8757;SDS011;4415;42.152;24.744;2023-10-08T14:23:38;6.43;;;3.80;;
8757;SDS011;4415;42.152;24.744;2023-10-08T14:26:05;5.85;;;3.70;;
8757;SDS011;4415;42.152;24.744;2023-10-08T14:28:32;7.53;;;4.10;;
8757;SDS011;4415;42.152;24.744;2023-10-08T14:31:09;6.20;;;3.72;;
8757;SDS011;4415;42.152;24.744;2023-10-08T14:33:43;7.78;;;3.92;;
8757;SDS011;4415;42.152;24.744;2023-10-08T14:36:24;10.07;;;3.50;;
8757;SDS011;4415;42.152;24.744;2023-10-08T14:39:08;10.20;;;3.58;;
8757;SDS011;4415;42.152;24.744;2023-10-08T14:41:52;8.15;;;3.40;;
8757;SDS011;4415;42.152;24.744;2023-10-08T14:44:36;9.23;;;3.72;;
8757;SDS011;4415;42.152;24.744;2023-10-08T14:47:02;8.82;;;3.70;;
8757;SDS011;4415;42.152;24.744;2023-10-08T14:49:29;15.68;;;4.03;;
8757;SDS011;4415;42.152;24.744;2023-10-08T14:51:54;9.25;;;3.35;;
8757;SDS011;4415;42.152;24.744;2023-10-08T14:54:20;8.07;;;3.63;;
8757;SDS011;4415;42.152;24.744;2023-10-08T14:56:45;10.05;;;3.30;;
8757;SDS011;4415;42.152;24.744;2023-10-08T14:59:11;11.48;;;3.88;;
8757;SDS011;4415;42.152;24.744;2023-10-08T15:01:36;11.32;;;4.10;;
8757;SDS011;4415;42.152;24.744;2023-10-08T15:04:02;12.65;;;4.00;;
8757;SDS011;4415;42.152;24.744;2023-10-08T15:06:30;7.85;;;4.18;;
8757;SDS011;4415;42.152;24.744;2023-10-08T15:08:55;7.40;;;3.90;;
8757;SDS011;4415;42.152;24.744;2023-10-08T15:11:22;11.50;;;3.80;;
8757;SDS011;4415;42.152;24.744;2023-10-08T15:13:47;15.45;;;3.75;;
8757;SDS011;4415;42.152;24.744;2023-10-08T15:16:14;12.70;;;3.67;;
8757;SDS011;4415;42.152;24.744;2023-10-08T15:18:40;5.72;;;3.25;;